sensor_id;sensor_type;location;lat;lon;timestamp;pressure;altitude;pressure_sealevel;temperature;humidity
66479;BME280;53294;47.912;13.526;2024-03-29T00:00:35;95140.44;;;3.29;80.75
66479;BME280;53294;47.912;13.526;2024-03-29T00:03:01;95136.72;;;3.30;80.04
66479;BME280;53294;47.912;13.526;2024-03-29T00:05:27;95144.19;;;3.28;79.89
66479;BME280;53294;47.912;13.526;2024-03-29T00:07:52;95128.25;;;3.28;79.92
66479;BME280;53294;47.912;13.526;2024-03-29T00:10:18;95131.47;;;3.20;80.35
66479;BME280;53294;47.912;13.526;2024-03-29T00:12:44;95145.81;;;3.19;80.62
66479;BME280;53294;47.912;13.526;2024-03-29T00:15:10;95142.03;;;3.30;80.31
66479;BME280;53294;47.912;13.526;2024-03-29T00:17:36;95150.50;;;3.32;79.97
66479;BME280;53294;47.912;13.526;2024-03-29T00:20:01;95157.78;;;3.06;80.45
66479;BME280;53294;47.912;13.526;2024-03-29T00:22:28;95143.63;;;3.31;78.56
66479;BME280;53294;47.912;13.526;2024-03-29T00:24:54;95149.91;;;3.46;76.58
66479;BME280;53294;47.912;13.526;2024-03-29T00:27:20;95158.34;;;3.58;76.67
66479;BME280;53294;47.912;13.526;2024-03-29T00:29:46;95153.81;;;3.58;77.07
66479;BME280;53294;47.912;13.526;2024-03-29T00:32:12;95149.31;;;3.59;77.52
66479;BME280;53294;47.912;13.526;2024-03-29T00:34:38;95136.03;;;3.54;77.93
66479;BME280;53294;47.912;13.526;2024-03-29T00:37:04;95134.50;;;3.48;78.21
66479;BME280;53294;47.912;13.526;2024-03-29T00:39:30;95128.66;;;3.46;78.47
66479;BME280;53294;47.912;13.526;2024-03-29T00:41:55;95126.56;;;3.42;77.98
66479;BME280;53294;47.912;13.526;2024-03-29T00:44:21;95127.06;;;3.45;77.22
66479;BME280;53294;47.912;13.526;2024-03-29T00:46:47;95133.25;;;3.35;78.49
66479;BME280;53294;47.912;13.526;2024-03-29T00:49:13;95131.38;;;3.35;79.17
66479;BME280;53294;47.912;13.526;2024-03-29T00:51:38;95127.69;;;3.31;79.16
66479;BME280;53294;47.912;13.526;2024-03-29T00:54:05;95128.25;;;3.23;79.51
66479;BME280;53294;47.912;13.526;2024-03-29T00:56:31;95129.34;;;3.17;79.40
66479;BME280;53294;47.912;13.526;2024-03-29T00:58:56;95137.34;;;3.12;79.90
66479;BME280;53294;47.912;13.526;2024-03-29T01:01:22;95141.59;;;3.13;79.64
66479;BME280;53294;47.912;13.526;2024-03-29T01:03:48;95144.25;;;3.08;79.57
66479;BME280;53294;47.912;13.526;2024-03-29T01:06:13;95146.69;;;2.99;81.02
66479;BME280;53294;47.912;13.526;2024-03-29T01:08:39;95138.50;;;2.95;81.40
66479;BME280;53294;47.912;13.526;2024-03-29T01:11:05;95142.19;;;2.99;81.43
66479;BME280;53294;47.912;13.526;2024-03-29T01:13:30;95144.00;;;3.04;80.60
66479;BME280;53294;47.912;13.526;2024-03-29T01:15:56;95141.13;;;3.00;80.56
66479;BME280;53294;47.912;13.526;2024-03-29T01:18:22;95133.94;;;3.01;80.52
66479;BME280;53294;47.912;13.526;2024-03-29T01:20:47;95127.38;;;2.88;80.39
66479;BME280;53294;47.912;13.526;2024-03-29T01:23:13;95127.88;;;2.90;80.07
66479;BME280;53294;47.912;13.526;2024-03-29T01:25:39;95126.91;;;2.65;79.85
66479;BME280;53294;47.912;13.526;2024-03-29T01:28:05;95117.38;;;2.64;80.25
66479;BME280;53294;47.912;13.526;2024-03-29T01:30:31;95118.16;;;2.70;80.21
66479;BME280;53294;47.912;13.526;2024-03-29T01:32:57;95113.63;;;2.76;79.55
66479;BME280;53294;47.912;13.526;2024-03-29T01:35:22;95112.03;;;2.80;78.80
66479;BME280;53294;47.912;13.526;2024-03-29T01:37:48;95114.63;;;2.90;78.58
66479;BME280;53294;47.912;13.526;2024-03-29T01:40:14;95106.91;;;2.99;77.76
66479;BME280;53294;47.912;13.526;2024-03-29T01:42:40;95098.69;;;2.95;77.57
66479;BME280;53294;47.912;13.526;2024-03-29T01:45:06;95091.56;;;2.91;78.47
66479;BME280;53294;47.912;13.526;2024-03-29T01:47:32;95085.94;;;2.97;78.69
66479;BME280;53294;47.912;13.526;2024-03-29T01:49:57;95080.09;;;3.00;78.19
66479;BME280;53294;47.912;13.526;2024-03-29T01:52:23;95075.41;;;2.82;79.19
66479;BME280;53294;47.912;13.526;2024-03-29T01:54:49;95070.88;;;2.87;79.25
66479;BME280;53294;47.912;13.526;2024-03-29T01:57:16;95061.28;;;2.97;78.02
66479;BME280;53294;47.912;13.526;2024-03-29T01:59:43;95051.72;;;2.96;78.59
66479;BME280;53294;47.912;13.526;2024-03-29T02:02:11;95045.66;;;2.95;79.09
66479;BME280;53294;47.912;13.526;2024-03-29T02:04:37;95037.69;;;2.95;78.64
66479;BME280;53294;47.912;13.526;2024-03-29T02:07:03;95036.59;;;2.96;78.39
66479;BME280;53294;47.912;13.526;2024-03-29T02:09:29;95044.59;;;2.91;78.47
66479;BME280;53294;47.912;13.526;2024-03-29T02:11:55;95046.22;;;2.82;78.35
66479;BME280;53294;47.912;13.526;2024-03-29T02:14:21;95034.56;;;2.78;78.82
66479;BME280;53294;47.912;13.526;2024-03-29T02:16:47;95038.03;;;2.73;79.19
66479;BME280;53294;47.912;13.526;2024-03-29T02:19:12;95026.16;;;2.71;79.18
66479;BME280;53294;47.912;13.526;2024-03-29T02:21:43;95022.94;;;2.74;79.51
66479;BME280;53294;47.912;13.526;2024-03-29T02:24:12;95022.13;;;2.73;79.36
66479;BME280;53294;47.912;13.526;2024-03-29T02:26:39;95008.66;;;2.64;79.42
66479;BME280;53294;47.912;13.526;2024-03-29T02:29:08;95005.56;;;2.52;79.98
66479;BME280;53294;47.912;13.526;2024-03-29T02:31:38;95009.50;;;2.55;79.74
66479;BME280;53294;47.912;13.526;2024-03-29T02:34:03;95016.63;;;2.59;79.32
66479;BME280;53294;47.912;13.526;2024-03-29T02:36:29;95028.06;;;2.60;80.00
66479;BME280;53294;47.912;13.526;2024-03-29T02:38:55;95017.97;;;2.62;80.11
66479;BME280;53294;47.912;13.526;2024-03-29T02:41:22;95024.03;;;2.67;80.40
66479;BME280;53294;47.912;13.526;2024-03-29T02:43:48;95030.66;;;2.65;80.57
66479;BME280;53294;47.912;13.526;2024-03-29T02:46:14;95025.59;;;2.68;81.74
66479;BME280;53294;47.912;13.526;2024-03-29T02:48:39;95035.63;;;2.82;81.29
66479;BME280;53294;47.912;13.526;2024-03-29T02:51:05;95033.44;;;2.94;80.85
66479;BME280;53294;47.912;13.526;2024-03-29T02:53:31;95035.72;;;3.11;80.56
66479;BME280;53294;47.912;13.526;2024-03-29T02:55:56;95023.19;;;3.17;80.25
66479;BME280;53294;47.912;13.526;2024-03-29T02:58:22;95026.28;;;3.34;78.27
66479;BME280;53294;47.912;13.526;2024-03-29T03:00:48;95024.34;;;3.40;77.42
66479;BME280;53294;47.912;13.526;2024-03-29T03:03:15;95021.44;;;3.41;77.68
66479;BME280;53294;47.912;13.526;2024-03-29T03:05:41;95016.09;;;3.47;78.44
66479;BME280;53294;47.912;13.526;2024-03-29T03:08:07;95012.75;;;3.65;78.72
66479;BME280;53294;47.912;13.526;2024-03-29T03:10:51;95011.91;;;3.70;77.88
66479;BME280;53294;47.912;13.526;2024-03-29T03:13:27;95014.75;;;3.78;76.38
66479;BME280;53294;47.912;13.526;2024-03-29T03:15:53;95018.09;;;3.89;76.57
66479;BME280;53294;47.912;13.526;2024-03-29T03:18:19;95018.00;;;4.00;75.91
66479;BME280;53294;47.912;13.526;2024-03-29T03:20:54;95016.63;;;4.02;74.97
66479;BME280;53294;47.912;13.526;2024-03-29T03:23:21;95028.91;;;3.98;75.04
66479;BME280;53294;47.912;13.526;2024-03-29T03:25:56;95032.63;;;3.97;74.80
66479;BME280;53294;47.912;13.526;2024-03-29T03:28:22;95033.41;;;3.98;75.43
66479;BME280;53294;47.912;13.526;2024-03-29T03:30:49;95037.72;;;3.93;75.37
66479;BME280;53294;47.912;13.526;2024-03-29T03:33:15;95027.88;;;3.94;75.14
66479;BME280;53294;47.912;13.526;2024-03-29T03:35:42;95030.91;;;4.11;74.01
66479;BME280;53294;47.912;13.526;2024-03-29T03:38:08;95031.91;;;4.16;73.59
66479;BME280;53294;47.912;13.526;2024-03-29T03:40:34;95026.94;;;4.33;72.93
66479;BME280;53294;47.912;13.526;2024-03-29T03:43:01;95019.44;;;4.40;72.72
66479;BME280;53294;47.912;13.526;2024-03-29T03:45:28;95022.94;;;4.36;73.12
66479;BME280;53294;47.912;13.526;2024-03-29T03:47:53;95012.69;;;4.24;73.06
66479;BME280;53294;47.912;13.526;2024-03-29T03:50:19;95006.75;;;4.08;73.98
66479;BME280;53294;47.912;13.526;2024-03-29T03:52:46;95009.78;;;3.96;74.61
66479;BME280;53294;47.912;13.526;2024-03-29T03:55:11;95015.16;;;3.91;74.71
66479;BME280;53294;47.912;13.526;2024-03-29T03:57:37;95010.91;;;3.90;75.25
66479;BME280;53294;47.912;13.526;2024-03-29T04:00:03;95003.22;;;3.88;74.96
66479;BME280;53294;47.912;13.526;2024-03-29T04:02:29;95001.31;;;3.94;74.60
66479;BME280;53294;47.912;13.526;2024-03-29T04:04:55;94999.00;;;3.87;74.08
66479;BME280;53294;47.912;13.526;2024-03-29T04:07:21;94998.16;;;3.92;74.06
66479;BME280;53294;47.912;13.526;2024-03-29T04:09:50;95007.25;;;3.86;73.84
66479;BME280;53294;47.912;13.526;2024-03-29T04:12:16;95003.97;;;3.94;72.95
66479;BME280;53294;47.912;13.526;2024-03-29T04:14:42;95006.06;;;3.97;73.06
66479;BME280;53294;47.912;13.526;2024-03-29T04:17:07;95005.03;;;3.93;73.56
66479;BME280;53294;47.912;13.526;2024-03-29T04:19:33;95002.91;;;3.95;73.58
66479;BME280;53294;47.912;13.526;2024-03-29T04:21:59;95000.25;;;3.95;73.64
66479;BME280;53294;47.912;13.526;2024-03-29T04:24:24;95002.50;;;3.83;74.48
66479;BME280;53294;47.912;13.526;2024-03-29T04:26:50;95000.41;;;3.80;74.90
66479;BME280;53294;47.912;13.526;2024-03-29T04:29:16;94999.47;;;3.65;75.45
66479;BME280;53294;47.912;13.526;2024-03-29T04:31:45;94996.28;;;3.63;76.00
66479;BME280;53294;47.912;13.526;2024-03-29T04:34:11;94986.34;;;3.50;77.16
66479;BME280;53294;47.912;13.526;2024-03-29T04:36:37;94977.06;;;3.47;77.29
66479;BME280;53294;47.912;13.526;2024-03-29T04:39:04;94965.09;;;3.50;77.29
66479;BME280;53294;47.912;13.526;2024-03-29T04:41:30;94960.28;;;3.52;76.72
66479;BME280;53294;47.912;13.526;2024-03-29T04:44:00;94950.38;;;3.63;75.88
66479;BME280;53294;47.912;13.526;2024-03-29T04:46:29;94950.59;;;3.66;75.94
66479;BME280;53294;47.912;13.526;2024-03-29T04:48:55;94951.56;;;3.75;76.07
66479;BME280;53294;47.912;13.526;2024-03-29T04:51:21;94959.38;;;3.91;75.40
66479;BME280;53294;47.912;13.526;2024-03-29T04:53:47;94943.88;;;3.98;75.02
66479;BME280;53294;47.912;13.526;2024-03-29T04:56:12;94957.19;;;3.98;74.79
66479;BME280;53294;47.912;13.526;2024-03-29T04:58:38;94964.50;;;4.06;74.46
66479;BME280;53294;47.912;13.526;2024-03-29T05:01:04;94968.47;;;4.09;74.35
66479;BME280;53294;47.912;13.526;2024-03-29T05:03:29;94968.88;;;3.97;74.39
66479;BME280;53294;47.912;13.526;2024-03-29T05:05:56;94968.88;;;3.97;74.05
66479;BME280;53294;47.912;13.526;2024-03-29T05:08:22;94962.72;;;4.02;73.63
66479;BME280;53294;47.912;13.526;2024-03-29T05:10:51;94972.00;;;4.04;72.84
66479;BME280;53294;47.912;13.526;2024-03-29T05:13:17;94979.88;;;3.85;73.17
66479;BME280;53294;47.912;13.526;2024-03-29T05:15:46;94978.47;;;3.69;74.14
66479;BME280;53294;47.912;13.526;2024-03-29T05:18:13;94979.06;;;3.61;74.62
66479;BME280;53294;47.912;13.526;2024-03-29T05:20:38;94981.03;;;3.50;75.03
66479;BME280;53294;47.912;13.526;2024-03-29T05:23:07;94972.06;;;3.40;75.35
66479;BME280;53294;47.912;13.526;2024-03-29T05:25:33;94974.84;;;3.25;75.57
66479;BME280;53294;47.912;13.526;2024-03-29T05:27:58;94966.28;;;3.33;75.69
66479;BME280;53294;47.912;13.526;2024-03-29T05:30:24;94962.53;;;3.39;75.15
66479;BME280;53294;47.912;13.526;2024-03-29T05:32:50;94966.22;;;3.38;75.12
66479;BME280;53294;47.912;13.526;2024-03-29T05:35:16;94960.34;;;3.47;74.79
66479;BME280;53294;47.912;13.526;2024-03-29T05:37:42;94954.38;;;3.60;74.49
66479;BME280;53294;47.912;13.526;2024-03-29T05:40:08;94964.91;;;3.70;73.98
66479;BME280;53294;47.912;13.526;2024-03-29T05:42:34;94967.50;;;3.75;73.94
66479;BME280;53294;47.912;13.526;2024-03-29T05:45:04;94968.47;;;3.85;73.60
66479;BME280;53294;47.912;13.526;2024-03-29T05:47:30;94965.75;;;3.90;73.89
66479;BME280;53294;47.912;13.526;2024-03-29T05:49:55;94967.53;;;4.00;73.75
66479;BME280;53294;47.912;13.526;2024-03-29T05:52:21;94971.84;;;4.14;73.31
66479;BME280;53294;47.912;13.526;2024-03-29T05:54:49;94961.03;;;4.30;73.06
66479;BME280;53294;47.912;13.526;2024-03-29T05:57:15;94955.63;;;4.40;72.27
66479;BME280;53294;47.912;13.526;2024-03-29T05:59:41;94945.63;;;4.51;71.60
66479;BME280;53294;47.912;13.526;2024-03-29T06:02:07;94947.28;;;4.66;71.73
66479;BME280;53294;47.912;13.526;2024-03-29T06:04:33;94942.41;;;4.73;71.16
66479;BME280;53294;47.912;13.526;2024-03-29T06:06:59;94938.50;;;4.84;71.18
66479;BME280;53294;47.912;13.526;2024-03-29T06:09:25;94941.53;;;4.97;71.19
66479;BME280;53294;47.912;13.526;2024-03-29T06:11:51;94946.31;;;5.14;70.71
66479;BME280;53294;47.912;13.526;2024-03-29T06:14:17;94941.97;;;5.37;69.99
66479;BME280;53294;47.912;13.526;2024-03-29T06:17:01;94941.16;;;5.69;68.65
66479;BME280;53294;47.912;13.526;2024-03-29T06:19:45;94914.81;;;5.96;68.05
66479;BME280;53294;47.912;13.526;2024-03-29T06:22:11;94913.97;;;6.14;67.63
66479;BME280;53294;47.912;13.526;2024-03-29T06:24:37;94918.66;;;6.59;67.02
66479;BME280;53294;47.912;13.526;2024-03-29T06:27:04;94910.50;;;7.23;64.82
66479;BME280;53294;47.912;13.526;2024-03-29T06:29:30;94900.94;;;7.85;62.75
66479;BME280;53294;47.912;13.526;2024-03-29T06:31:56;94897.84;;;8.58;60.38
66479;BME280;53294;47.912;13.526;2024-03-29T06:34:21;94885.53;;;9.27;57.92
66479;BME280;53294;47.912;13.526;2024-03-29T06:36:47;94894.75;;;10.03;55.88
66479;BME280;53294;47.912;13.526;2024-03-29T06:39:13;94907.56;;;10.36;54.73
66479;BME280;53294;47.912;13.526;2024-03-29T06:41:38;94914.41;;;10.54;54.71
66479;BME280;53294;47.912;13.526;2024-03-29T06:44:04;94909.84;;;10.76;53.67
66479;BME280;53294;47.912;13.526;2024-03-29T06:46:30;94916.72;;;10.86;53.74
66479;BME280;53294;47.912;13.526;2024-03-29T06:48:57;94899.72;;;10.82;54.12
66479;BME280;53294;47.912;13.526;2024-03-29T06:51:23;94891.50;;;10.78;53.25
66479;BME280;53294;47.912;13.526;2024-03-29T06:53:48;94899.56;;;10.78;53.46
66479;BME280;53294;47.912;13.526;2024-03-29T06:56:14;94892.91;;;9.95;55.71
66479;BME280;53294;47.912;13.526;2024-03-29T06:58:41;94903.66;;;9.95;56.05
66479;BME280;53294;47.912;13.526;2024-03-29T07:01:07;94892.72;;;10.38;55.66
66479;BME280;53294;47.912;13.526;2024-03-29T07:03:33;94896.28;;;10.93;54.96
66479;BME280;53294;47.912;13.526;2024-03-29T07:05:59;94886.81;;;11.63;52.96
66479;BME280;53294;47.912;13.526;2024-03-29T07:08:25;94878.91;;;12.53;50.96
66479;BME280;53294;47.912;13.526;2024-03-29T07:11:00;94880.16;;;13.53;49.00
66479;BME280;53294;47.912;13.526;2024-03-29T07:13:29;94882.41;;;14.11;47.56
66479;BME280;53294;47.912;13.526;2024-03-29T07:15:55;94891.56;;;14.06;47.39
66479;BME280;53294;47.912;13.526;2024-03-29T07:18:21;94893.56;;;14.09;46.62
66479;BME280;53294;47.912;13.526;2024-03-29T07:20:47;94888.69;;;14.66;45.56
66479;BME280;53294;47.912;13.526;2024-03-29T07:23:12;94893.97;;;15.34;45.16
66479;BME280;53294;47.912;13.526;2024-03-29T07:25:40;94894.31;;;15.32;43.80
66479;BME280;53294;47.912;13.526;2024-03-29T07:28:06;94894.50;;;14.84;45.93
66479;BME280;53294;47.912;13.526;2024-03-29T07:30:31;94879.28;;;15.35;45.69
66479;BME280;53294;47.912;13.526;2024-03-29T07:32:57;94884.03;;;15.61;43.87
66479;BME280;53294;47.912;13.526;2024-03-29T07:35:23;94871.06;;;15.70;44.47
66479;BME280;53294;47.912;13.526;2024-03-29T07:37:49;94866.56;;;16.24;43.43
66479;BME280;53294;47.912;13.526;2024-03-29T07:40:16;94864.19;;;16.46;43.59
66479;BME280;53294;47.912;13.526;2024-03-29T07:42:42;94862.28;;;17.03;42.05
66479;BME280;53294;47.912;13.526;2024-03-29T07:45:08;94837.19;;;17.48;41.27
66479;BME280;53294;47.912;13.526;2024-03-29T07:47:34;94831.75;;;17.48;40.46
66479;BME280;53294;47.912;13.526;2024-03-29T07:49:59;94825.56;;;17.51;39.92
66479;BME280;53294;47.912;13.526;2024-03-29T07:52:25;94833.66;;;17.85;40.43
66479;BME280;53294;47.912;13.526;2024-03-29T07:54:51;94832.44;;;18.23;38.36
66479;BME280;53294;47.912;13.526;2024-03-29T07:57:17;94838.16;;;18.63;37.49
66479;BME280;53294;47.912;13.526;2024-03-29T07:59:43;94835.31;;;19.11;35.14
66479;BME280;53294;47.912;13.526;2024-03-29T08:02:08;94829.94;;;19.33;34.98
66479;BME280;53294;47.912;13.526;2024-03-29T08:04:34;94832.31;;;19.52;35.09
66479;BME280;53294;47.912;13.526;2024-03-29T08:07:00;94826.09;;;19.59;34.81
66479;BME280;53294;47.912;13.526;2024-03-29T08:09:26;94815.09;;;19.12;35.61
66479;BME280;53294;47.912;13.526;2024-03-29T08:11:52;94828.19;;;17.77;38.74
66479;BME280;53294;47.912;13.526;2024-03-29T08:14:17;94835.50;;;16.98;39.64
66479;BME280;53294;47.912;13.526;2024-03-29T08:16:43;94828.94;;;17.78;38.30
66479;BME280;53294;47.912;13.526;2024-03-29T08:19:09;94823.22;;;18.35;38.73
66479;BME280;53294;47.912;13.526;2024-03-29T08:21:35;94818.81;;;18.79;38.19
66479;BME280;53294;47.912;13.526;2024-03-29T08:24:02;94817.38;;;19.03;35.67
66479;BME280;53294;47.912;13.526;2024-03-29T08:26:29;94821.44;;;19.52;35.44
66479;BME280;53294;47.912;13.526;2024-03-29T08:28:56;94802.44;;;19.81;35.16
66479;BME280;53294;47.912;13.526;2024-03-29T08:31:23;94805.94;;;19.93;33.05
66479;BME280;53294;47.912;13.526;2024-03-29T08:33:50;94802.81;;;19.98;32.69
66479;BME280;53294;47.912;13.526;2024-03-29T08:36:16;94806.66;;;19.61;31.37
66479;BME280;53294;47.912;13.526;2024-03-29T08:38:41;94808.16;;;19.29;31.08
66479;BME280;53294;47.912;13.526;2024-03-29T08:41:09;94810.94;;;19.54;32.21
66479;BME280;53294;47.912;13.526;2024-03-29T08:43:35;94806.72;;;19.93;30.95
66479;BME280;53294;47.912;13.526;2024-03-29T08:46:01;94802.81;;;20.37;32.27
66479;BME280;53294;47.912;13.526;2024-03-29T08:48:27;94807.84;;;20.46;31.04
66479;BME280;53294;47.912;13.526;2024-03-29T08:50:53;94797.75;;;20.36;29.44
66479;BME280;53294;47.912;13.526;2024-03-29T08:53:19;94797.69;;;20.79;28.84
66479;BME280;53294;47.912;13.526;2024-03-29T08:55:46;94789.34;;;21.15;29.10
66479;BME280;53294;47.912;13.526;2024-03-29T08:58:12;94802.34;;;21.71;29.56
66479;BME280;53294;47.912;13.526;2024-03-29T09:00:38;94812.97;;;21.54;28.00
66479;BME280;53294;47.912;13.526;2024-03-29T09:03:03;94799.09;;;21.86;28.44
66479;BME280;53294;47.912;13.526;2024-03-29T09:05:29;94800.75;;;21.77;27.89
66479;BME280;53294;47.912;13.526;2024-03-29T09:07:56;94796.47;;;22.21;28.24
66479;BME280;53294;47.912;13.526;2024-03-29T09:10:23;94798.91;;;22.12;27.15
66479;BME280;53294;47.912;13.526;2024-03-29T09:12:49;94803.69;;;22.00;27.69
66479;BME280;53294;47.912;13.526;2024-03-29T09:15:15;94769.56;;;21.71;29.39
66479;BME280;53294;47.912;13.526;2024-03-29T09:17:46;94800.03;;;21.62;28.06
66479;BME280;53294;47.912;13.526;2024-03-29T09:20:12;94796.94;;;21.60;28.87
66479;BME280;53294;47.912;13.526;2024-03-29T09:22:39;94786.59;;;21.85;29.41
66479;BME280;53294;47.912;13.526;2024-03-29T09:25:05;94786.94;;;22.40;27.60
66479;BME280;53294;47.912;13.526;2024-03-29T09:27:31;94773.78;;;22.24;28.94
66479;BME280;53294;47.912;13.526;2024-03-29T09:30:05;94774.25;;;22.19;28.04
66479;BME280;53294;47.912;13.526;2024-03-29T09:32:31;94772.00;;;21.47;28.67
66479;BME280;53294;47.912;13.526;2024-03-29T09:34:57;94769.97;;;20.91;27.19
66479;BME280;53294;47.912;13.526;2024-03-29T09:37:23;94777.91;;;20.24;28.67
66479;BME280;53294;47.912;13.526;2024-03-29T09:39:49;94773.25;;;20.07;28.91
66479;BME280;53294;47.912;13.526;2024-03-29T09:42:21;94767.41;;;20.05;31.08
66479;BME280;53294;47.912;13.526;2024-03-29T09:44:49;94783.75;;;20.05;30.92
66479;BME280;53294;47.912;13.526;2024-03-29T09:47:17;94751.47;;;19.93;31.89
66479;BME280;53294;47.912;13.526;2024-03-29T09:49:44;94759.56;;;19.49;30.38
66479;BME280;53294;47.912;13.526;2024-03-29T09:52:13;94763.81;;;19.29;31.96
66479;BME280;53294;47.912;13.526;2024-03-29T09:54:39;94769.94;;;18.90;31.81
66479;BME280;53294;47.912;13.526;2024-03-29T09:57:05;94769.41;;;18.66;33.25
66479;BME280;53294;47.912;13.526;2024-03-29T09:59:31;94773.66;;;18.60;31.13
66479;BME280;53294;47.912;13.526;2024-03-29T10:01:58;94771.84;;;18.19;30.95
66479;BME280;53294;47.912;13.526;2024-03-29T10:04:24;94766.47;;;18.23;32.14
66479;BME280;53294;47.912;13.526;2024-03-29T10:06:51;94754.06;;;18.29;35.20
66479;BME280;53294;47.912;13.526;2024-03-29T10:09:21;94769.59;;;19.09;34.69
66479;BME280;53294;47.912;13.526;2024-03-29T10:11:47;94748.59;;;19.06;34.31
66479;BME280;53294;47.912;13.526;2024-03-29T10:14:13;94751.03;;;19.51;33.56
66479;BME280;53294;47.912;13.526;2024-03-29T10:16:39;94757.69;;;19.97;33.11
66479;BME280;53294;47.912;13.526;2024-03-29T10:19:07;94739.34;;;19.54;30.91
66479;BME280;53294;47.912;13.526;2024-03-29T10:21:33;94742.50;;;19.88;32.89
66479;BME280;53294;47.912;13.526;2024-03-29T10:24:11;94747.84;;;20.53;32.92
66479;BME280;53294;47.912;13.526;2024-03-29T10:26:37;94740.03;;;21.44;30.14
66479;BME280;53294;47.912;13.526;2024-03-29T10:29:03;94753.31;;;21.42;29.05
66479;BME280;53294;47.912;13.526;2024-03-29T10:31:34;94724.53;;;21.86;27.82
66479;BME280;53294;47.912;13.526;2024-03-29T10:34:03;94723.31;;;22.70;28.07
66479;BME280;53294;47.912;13.526;2024-03-29T10:36:29;94711.13;;;23.09;25.91
66479;BME280;53294;47.912;13.526;2024-03-29T10:38:55;94713.47;;;23.11;27.11
66479;BME280;53294;47.912;13.526;2024-03-29T10:41:21;94726.13;;;22.25;27.46
66479;BME280;53294;47.912;13.526;2024-03-29T10:43:50;94742.03;;;20.44;28.45
66479;BME280;53294;47.912;13.526;2024-03-29T10:46:19;94733.81;;;20.66;29.26
66479;BME280;53294;47.912;13.526;2024-03-29T10:48:48;94723.19;;;20.89;30.33
66479;BME280;53294;47.912;13.526;2024-03-29T10:51:15;94724.63;;;21.08;31.47
66479;BME280;53294;47.912;13.526;2024-03-29T10:53:41;94721.78;;;21.33;30.82
66479;BME280;53294;47.912;13.526;2024-03-29T10:56:07;94726.78;;;21.42;31.02
66479;BME280;53294;47.912;13.526;2024-03-29T10:58:40;94722.66;;;21.16;31.40
66479;BME280;53294;47.912;13.526;2024-03-29T11:01:07;94718.97;;;21.41;29.78
66479;BME280;53294;47.912;13.526;2024-03-29T11:03:49;94721.31;;;21.46;29.77
66479;BME280;53294;47.912;13.526;2024-03-29T11:06:16;94725.31;;;21.83;29.78
66479;BME280;53294;47.912;13.526;2024-03-29T11:08:43;94723.66;;;21.96;31.71
66479;BME280;53294;47.912;13.526;2024-03-29T11:11:13;94722.41;;;21.59;32.51
66479;BME280;53294;47.912;13.526;2024-03-29T11:13:49;94718.13;;;21.55;32.45
66479;BME280;53294;47.912;13.526;2024-03-29T11:16:17;94714.38;;;21.30;34.11
66479;BME280;53294;47.912;13.526;2024-03-29T11:18:46;94701.06;;;21.40;33.05
66479;BME280;53294;47.912;13.526;2024-03-29T11:21:14;94704.78;;;21.67;31.53
66479;BME280;53294;47.912;13.526;2024-03-29T11:23:51;94704.88;;;21.53;32.94
66479;BME280;53294;47.912;13.526;2024-03-29T11:26:18;94699.47;;;22.36;33.81
66479;BME280;53294;47.912;13.526;2024-03-29T11:28:51;94692.97;;;23.23;31.65
66479;BME280;53294;47.912;13.526;2024-03-29T11:31:21;94694.97;;;23.19;27.78
66479;BME280;53294;47.912;13.526;2024-03-29T11:33:48;94686.09;;;23.07;28.87
66479;BME280;53294;47.912;13.526;2024-03-29T11:36:16;94685.44;;;23.54;28.64
66479;BME280;53294;47.912;13.526;2024-03-29T11:38:44;94690.63;;;23.72;27.48
66479;BME280;53294;47.912;13.526;2024-03-29T11:43:40;94682.63;;;23.58;26.05
66479;BME280;53294;47.912;13.526;2024-03-29T11:46:18;94681.31;;;23.42;27.16
66479;BME280;53294;47.912;13.526;2024-03-29T11:48:44;94683.53;;;23.24;27.19
66479;BME280;53294;47.912;13.526;2024-03-29T11:51:21;94685.72;;;23.36;27.30
66479;BME280;53294;47.912;13.526;2024-03-29T11:53:49;94680.78;;;24.42;26.62
66479;BME280;53294;47.912;13.526;2024-03-29T11:56:18;94675.66;;;25.41;24.67
66479;BME280;53294;47.912;13.526;2024-03-29T11:58:44;94655.34;;;26.01;23.56
66479;BME280;53294;47.912;13.526;2024-03-29T12:01:10;94656.91;;;26.60;23.28
66479;BME280;53294;47.912;13.526;2024-03-29T12:03:40;94655.69;;;27.29;22.53
66479;BME280;53294;47.912;13.526;2024-03-29T12:06:06;94645.69;;;27.35;23.38
66479;BME280;53294;47.912;13.526;2024-03-29T12:08:34;94648.44;;;27.61;22.65
66479;BME280;53294;47.912;13.526;2024-03-29T12:11:01;94652.59;;;27.01;24.74
66479;BME280;53294;47.912;13.526;2024-03-29T12:13:27;94663.47;;;26.21;24.59
66479;BME280;53294;47.912;13.526;2024-03-29T12:15:54;94657.25;;;25.87;26.29
66479;BME280;53294;47.912;13.526;2024-03-29T12:18:20;94654.78;;;26.22;25.26
66479;BME280;53294;47.912;13.526;2024-03-29T12:20:48;94647.13;;;25.84;25.28
66479;BME280;53294;47.912;13.526;2024-03-29T12:23:19;94644.16;;;25.09;26.10
66479;BME280;53294;47.912;13.526;2024-03-29T12:25:46;94649.66;;;24.72;27.18
66479;BME280;53294;47.912;13.526;2024-03-29T12:28:13;94650.41;;;24.33;28.12
66479;BME280;53294;47.912;13.526;2024-03-29T12:30:44;94652.38;;;24.52;27.75
66479;BME280;53294;47.912;13.526;2024-03-29T12:33:21;94652.25;;;24.19;28.10
66479;BME280;53294;47.912;13.526;2024-03-29T12:35:48;94639.09;;;24.51;27.84
66479;BME280;53294;47.912;13.526;2024-03-29T12:38:16;94639.84;;;24.11;28.00
66479;BME280;53294;47.912;13.526;2024-03-29T12:40:43;94635.50;;;24.74;29.44
66479;BME280;53294;47.912;13.526;2024-03-29T12:43:10;94636.75;;;24.89;27.59
66479;BME280;53294;47.912;13.526;2024-03-29T12:45:38;94632.31;;;25.12;24.94
66479;BME280;53294;47.912;13.526;2024-03-29T12:48:20;94634.06;;;25.22;24.84
66479;BME280;53294;47.912;13.526;2024-03-29T12:50:48;94642.63;;;25.08;24.01
66479;BME280;53294;47.912;13.526;2024-03-29T12:53:15;94639.00;;;25.31;23.78
66479;BME280;53294;47.912;13.526;2024-03-29T12:55:43;94625.34;;;25.44;23.87